Time;durP1;ratioP1;P1;durP2;ratioP2;P2;SDS_P1;SDS_P2;PMS_P1;PMS_P2;Temp;Humidity;BMP_temperature;BMP_pressure;BME280_temperature;BME280_humidity;BME280_pressure;Samples;Min_cycle;Max_cycle;Signal;HPM_P1;HPM_P2
2021/03/09 00:01:21;;;;;;;6.80;1.87;;;;;;;-1.92;61.18;99434.61;1714469;83;21092;-62
2021/03/09 00:03:49;;;;;;;5.53;2.87;;;;;;;-1.90;61.41;99439.72;1714496;83;21076;-63
2021/03/09 00:06:17;;;;;;;1.52;0.93;;;;;;;-1.88;61.95;99440.17;1714461;83;21164;-62
2021/03/09 00:08:45;;;;;;;7.80;2.27;;;;;;;-1.90;62.88;99444.40;1714508;82;21152;-62
2021/03/09 00:11:12;;;;;;;1.85;1.05;;;;;;;-1.96;63.67;99439.23;1714258;83;21533;-61
2021/03/09 00:13:40;;;;;;;2.27;0.80;;;;;;;-1.98;63.99;99440.06;1714449;83;21093;-62
2021/03/09 00:16:08;;;;;;;3.33;1.37;;;;;;;-1.99;63.66;99443.45;1714567;83;21131;-62
2021/03/09 00:18:36;;;;;;;3.77;1.40;;;;;;;-1.97;63.65;99445.17;1714520;83;21139;-62
2021/03/09 00:21:03;;;;;;;2.05;1.20;;;;;;;-1.95;62.57;99451.14;1714461;82;21096;-62
2021/03/09 00:23:31;;;;;;;1.57;0.90;;;;;;;-1.93;62.18;99448.19;1714485;83;22123;-61
2021/03/09 00:25:58;;;;;;;1.95;1.00;;;;;;;-1.93;61.32;99448.61;1714428;83;21180;-62
2021/03/09 00:28:26;;;;;;;4.33;1.05;;;;;;;-1.97;61.03;99455.79;1714431;83;21568;-61
2021/03/09 00:30:54;;;;;;;1.42;0.70;;;;;;;-2.01;61.12;99459.18;1714472;83;21183;-62
2021/03/09 00:33:22;;;;;;;1.15;0.80;;;;;;;-2.01;60.26;99457.91;1714465;82;21088;-61
2021/03/09 00:35:49;;;;;;;2.20;1.40;;;;;;;-2.00;59.52;99454.09;1714533;83;23597;-62
2021/03/09 00:38:17;;;;;;;2.35;1.32;;;;;;;-1.98;59.59;99460.45;1745101;81;21132;-61
2021/03/09 00:40:46;;;;;;;1.55;1.15;;;;;;;-1.98;59.50;99454.94;1745170;82;21109;-62
2021/03/09 00:43:13;;;;;;;1.62;0.98;;;;;;;-1.95;59.35;99457.94;1745181;81;21085;-61
2021/03/09 00:45:41;;;;;;;1.50;0.88;;;;;;;-1.94;59.07;99455.41;1745197;81;21068;-62
2021/03/09 00:48:09;;;;;;;1.32;0.72;;;;;;;-1.96;59.10;99457.50;1714425;82;21329;-62
2021/03/09 00:50:37;;;;;;;0.93;0.60;;;;;;;-1.99;57.88;99462.15;1714435;83;21140;-61
2021/03/09 00:53:05;;;;;;;13.13;1.05;;;;;;;-2.03;57.61;99464.68;1713573;83;21187;-62
2021/03/09 00:55:32;;;;;;;1.47;0.90;;;;;;;-2.07;57.55;99475.69;1705787;84;21063;-62
2021/03/09 00:58:01;;;;;;;1.35;0.75;;;;;;;-2.11;57.53;99466.73;1705768;84;21124;-62
2021/03/09 01:00:29;;;;;;;0.98;0.70;;;;;;;-2.13;57.62;99465.00;1705875;84;21485;-62
2021/03/09 01:02:57;;;;;;;2.27;0.82;;;;;;;-2.15;57.80;99466.27;1705863;84;21533;-61
2021/03/09 01:05:25;;;;;;;1.92;0.60;;;;;;;-2.12;57.48;99472.66;1705903;83;21556;-62
2021/03/09 01:07:54;;;;;;;0.80;0.60;;;;;;;-2.11;56.80;99462.91;1705859;83;21077;-61
2021/03/09 01:10:22;;;;;;;1.30;0.72;;;;;;;-2.12;56.00;99463.75;1705843;84;21077;-62
2021/03/09 01:12:50;;;;;;;1.22;0.70;;;;;;;-2.12;56.14;99467.98;1705792;84;21494;-63
2021/03/09 01:15:18;;;;;;;3.55;1.17;;;;;;;-2.10;55.74;99473.95;1705770;84;21180;-63
2021/03/09 01:17:46;;;;;;;4.20;1.12;;;;;;;-2.13;55.02;99466.28;1705764;83;21125;-63
2021/03/09 01:20:14;;;;;;;1.95;0.90;;;;;;;-2.20;54.14;99470.91;1705875;84;21639;-63
2021/03/09 01:22:43;;;;;;;3.15;0.80;;;;;;;-2.26;53.25;99461.92;1705827;84;21085;-63
2021/03/09 01:25:12;;;;;;;1.20;0.78;;;;;;;-2.32;53.39;99465.25;1705903;84;21472;-63
2021/03/09 01:27:39;;;;;;;1.57;0.55;;;;;;;-2.36;52.04;99474.97;1705696;84;21514;-63
2021/03/09 01:30:10;;;;;;;2.08;0.60;;;;;;;-2.44;51.31;99474.05;1705796;83;21093;-63
2021/03/09 01:32:37;;;;;;;3.05;0.80;;;;;;;-2.53;51.49;99476.48;1705800;84;21140;-63
2021/03/09 01:35:08;;;;;;;1.67;1.00;;;;;;;-2.60;51.17;99476.00;1705895;84;21589;-63
2021/03/09 01:37:35;;;;;;;1.27;0.80;;;;;;;-2.64;51.29;99481.89;1705808;84;21282;-63
2021/03/09 01:40:10;;;;;;;1.70;0.65;;;;;;;-2.68;50.52;99483.96;1705741;84;21973;-63
2021/03/09 01:42:37;;;;;;;2.17;0.68;;;;;;;-2.74;49.41;99483.88;1705829;84;21124;-63
2021/03/09 01:45:07;;;;;;;1.35;0.85;;;;;;;-2.83;49.54;99479.13;1705778;84;21136;-63
2021/03/09 01:47:43;;;;;;;1.90;0.85;;;;;;;-2.88;49.94;99473.55;1705817;83;21153;-62
2021/03/09 01:50:13;;;;;;;4.47;2.00;;;;;;;-2.92;49.86;99473.91;1705840;84;21454;-62
2021/03/09 01:52:42;;;;;;;4.60;1.52;;;;;;;-2.95;50.40;99475.56;1705717;84;21117;-63
2021/03/09 01:55:11;;;;;;;4.25;1.70;;;;;;;-2.97;50.19;99472.14;1705644;84;21069;-63
2021/03/09 01:57:41;;;;;;;1.02;0.88;;;;;;;-2.97;50.22;99475.95;1705771;83;21545;-62
2021/03/09 02:00:11;;;;;;;2.10;1.00;;;;;;;-2.97;50.03;99469.18;1705711;84;21092;-63
2021/03/09 02:02:42;;;;;;;3.65;1.50;;;;;;;-2.97;49.97;99469.18;1705967;84;26329;-63
2021/03/09 02:05:12;;;;;;;3.67;1.62;;;;;;;-3.00;50.26;99464.50;1705727;83;21114;-63
2021/03/09 02:07:40;;;;;;;27.35;3.10;;;;;;;-3.04;50.75;99471.23;1705785;84;21080;-63
2021/03/09 02:10:13;;;;;;;3.65;1.67;;;;;;;-3.04;50.81;99469.95;1705812;84;21598;-63
2021/03/09 02:13:15;;;;;;;2.42;1.27;;;;;;;-3.03;50.88;99472.94;1705788;84;21072;-63
2021/03/09 02:16:08;;;;;;;2.40;1.30;;;;;;;-3.01;51.18;99464.05;1705753;84;23652;-64
2021/03/09 02:18:47;;;;;;;7.23;2.10;;;;;;;-2.97;51.04;99476.81;1705481;84;21192;-63
2021/03/09 02:21:59;;;;;;;6.80;2.50;;;;;;;-2.98;51.38;99474.25;1705826;83;21876;-63
2021/03/09 02:25:18;;;;;;;4.08;1.42;;;;;;;-3.00;51.59;99481.03;1705878;83;21173;-63
2021/03/09 02:28:27;;;;;;;3.58;1.20;;;;;;;-3.04;51.68;99478.86;1705572;84;21169;-62
2021/03/09 02:30:55;;;;;;;3.72;1.80;;;;;;;-3.06;51.61;99485.62;1705779;84;21390;-62
2021/03/09 02:33:40;;;;;;;6.33;2.20;;;;;;;-3.08;52.08;99489.83;1685746;84;21526;-62
2021/03/09 02:36:12;;;;;;;3.08;1.70;;;;;;;-3.10;51.86;99491.91;1705821;83;21132;-62
2021/03/09 02:38:58;;;;;;;1.90;0.80;;;;;;;-3.13;51.21;99499.08;1705780;84;21157;-62
2021/03/09 02:41:26;;;;;;;0.93;0.53;;;;;;;-3.16;50.42;99493.95;1646833;85;21159;-62
2021/03/09 02:43:56;;;;;;;2.15;0.98;;;;;;;-3.10;50.52;99507.17;1705671;84;21221;-62
2021/03/09 02:46:27;;;;;;;3.90;0.93;;;;;;;-3.03;51.09;99507.70;1705926;84;21740;-62
2021/03/09 02:48:55;;;;;;;3.72;0.68;;;;;;;-2.97;50.76;99504.80;1705918;84;21615;-62
2021/03/09 02:51:28;;;;;;;6.58;1.10;;;;;;;-2.92;50.46;99515.91;1705924;84;21072;-62
2021/03/09 02:53:56;;;;;;;0.80;0.72;;;;;;;-2.90;50.65;99508.30;1706195;83;21101;-62
2021/03/09 02:56:24;;;;;;;0.70;0.50;;;;;;;-2.91;50.19;99511.25;1744473;82;21386;-62
2021/03/09 02:58:56;;;;;;;6.75;0.95;;;;;;;-2.92;48.92;99520.99;1744394;82;21513;-62
2021/03/09 03:01:27;;;;;;;5.35;0.80;;;;;;;-2.94;49.87;99523.94;1711474;83;21076;-62
2021/03/09 03:03:55;;;;;;;2.67;1.00;;;;;;;-2.96;50.48;99520.92;1728114;82;21131;-62
2021/03/09 03:06:24;;;;;;;3.47;1.12;;;;;;;-3.00;50.29;99523.88;1744511;82;21485;-62
2021/03/09 03:08:55;;;;;;;1.90;0.88;;;;;;;-3.00;50.60;99525.14;1711420;83;21525;-62
2021/03/09 03:11:23;;;;;;;25.50;1.85;;;;;;;-2.99;50.34;99534.45;1744428;82;21115;-62
2021/03/09 03:13:50;;;;;;;1.40;0.60;;;;;;;-3.01;51.10;99531.48;1744410;82;21481;-63
2021/03/09 03:16:18;;;;;;;1.27;0.82;;;;;;;-3.01;50.99;99534.89;1711467;83;21097;-63
2021/03/09 03:18:46;;;;;;;0.95;0.57;;;;;;;-3.02;51.43;99540.80;1727777;82;21772;-63
2021/03/09 03:21:14;;;;;;;2.00;0.70;;;;;;;-3.00;51.06;99539.14;1744465;81;22203;-63
2021/03/09 03:23:43;;;;;;;3.98;1.07;;;;;;;-3.01;51.58;99543.80;1711423;83;21108;-63
2021/03/09 03:26:11;;;;;;;1.00;0.62;;;;;;;-3.04;51.72;99536.53;1727660;82;21064;-63
2021/03/09 03:28:42;;;;;;;1.67;0.47;;;;;;;-3.04;51.49;99542.89;1744544;82;21636;-63
2021/03/09 03:31:10;;;;;;;6.70;0.80;;;;;;;-3.05;50.99;99542.03;1711516;83;21076;-62
2021/03/09 03:33:37;;;;;;;1.75;0.40;;;;;;;-3.08;50.89;99538.17;1744444;82;21271;-63
2021/03/09 03:36:07;;;;;;;0.88;0.55;;;;;;;-3.09;50.11;99544.09;1744385;82;21119;-63
2021/03/09 03:38:37;;;;;;;1.00;0.60;;;;;;;-3.11;50.39;99552.11;1711426;82;21712;-63
2021/03/09 03:41:08;;;;;;;1.30;0.85;;;;;;;-3.12;50.28;99555.07;1744432;81;21195;-63
2021/03/09 03:43:36;;;;;;;6.35;0.82;;;;;;;-3.13;50.80;99559.72;1744565;81;21135;-63
2021/03/09 03:46:04;;;;;;;0.72;0.60;;;;;;;-3.13;51.07;99555.91;1711456;83;21401;-63
2021/03/09 03:48:35;;;;;;;2.10;0.78;;;;;;;-3.10;51.07;99550.42;1744392;81;21097;-63
2021/03/09 03:51:06;;;;;;;8.50;1.50;;;;;;;-3.08;51.25;99558.94;1744459;82;21081;-63
2021/03/09 03:54:00;;;;;;;7.08;1.20;;;;;;;-3.03;51.39;99565.81;1727456;82;21304;-62
2021/03/09 03:56:51;;;;;;;1.67;0.60;;;;;;;-2.99;51.24;99557.78;1753450;80;21741;-63
2021/03/09 03:59:36;;;;;;;6.90;0.90;;;;;;;-3.01;51.65;99569.23;1754263;81;21250;-62
2021/03/09 04:02:09;;;;;;;2.45;0.70;;;;;;;-3.01;51.89;99563.29;1754288;81;21069;-62
2021/03/09 04:04:38;;;;;;;0.60;0.40;;;;;;;-3.00;52.19;99563.31;1754272;81;21116;-62
2021/03/09 04:07:06;;;;;;;0.65;0.45;;;;;;;-2.99;51.92;99566.69;1754277;81;21156;-62
2021/03/09 04:09:34;;;;;;;1.77;0.50;;;;;;;-2.98;51.55;99569.67;1726918;81;21168;-62
2021/03/09 04:12:04;;;;;;;1.35;0.72;;;;;;;-2.98;51.47;99570.94;1754352;81;21463;-63
2021/03/09 04:14:33;;;;;;;2.25;0.70;;;;;;;-2.96;51.41;99576.91;1754221;81;21165;-62
2021/03/09 04:17:02;;;;;;;2.02;0.47;;;;;;;-2.96;51.42;99568.86;1754252;81;21053;-62
2021/03/09 04:19:30;;;;;;;0.98;0.60;;;;;;;-2.95;51.64;99574.80;1754233;81;21498;-62
2021/03/09 04:21:59;;;;;;;2.33;0.60;;;;;;;-2.97;52.21;99574.78;1754364;81;21601;-62
2021/03/09 04:24:27;;;;;;;0.80;0.50;;;;;;;-2.96;52.26;99573.95;1726565;81;21209;-62
2021/03/09 04:26:54;;;;;;;7.70;0.78;;;;;;;-2.96;52.01;99573.09;1726704;81;21216;-62
2021/03/09 04:29:23;;;;;;;1.72;0.70;;;;;;;-2.93;52.19;99576.54;1754275;81;21101;-62
2021/03/09 04:31:51;;;;;;;3.40;1.62;;;;;;;-2.92;52.48;99582.07;1754246;81;21073;-62
2021/03/09 04:34:19;;;;;;;22.20;2.35;;;;;;;-2.92;51.82;99585.03;1754253;81;21546;-62
2021/03/09 04:36:49;;;;;;;3.47;0.60;;;;;;;-2.96;51.29;99587.09;1754241;81;23457;-62
2021/03/09 04:39:17;;;;;;;2.33;0.88;;;;;;;-3.02;51.44;99587.02;1754150;81;21556;-62
2021/03/09 04:41:45;;;;;;;1.90;0.78;;;;;;;-3.08;52.10;99588.20;1726726;81;21081;-62
2021/03/09 04:44:12;;;;;;;1.20;0.70;;;;;;;-3.07;52.28;99585.67;1754256;81;21068;-62
2021/03/09 04:46:42;;;;;;;2.50;0.70;;;;;;;-3.09;52.20;99583.52;1754288;81;21070;-62
2021/03/09 04:49:14;;;;;;;12.50;1.62;;;;;;;-3.10;52.16;99591.13;1754267;81;21382;-62
2021/03/09 04:51:42;;;;;;;3.22;0.93;;;;;;;-3.08;52.48;99589.05;1727677;81;21080;-63
2021/03/09 04:54:10;;;;;;;7.85;1.37;;;;;;;-3.06;52.73;99595.02;1754245;81;21090;-63
2021/03/09 04:56:38;;;;;;;1.55;0.90;;;;;;;-3.04;52.94;99586.14;1757369;80;21132;-63
2021/03/09 04:59:06;;;;;;;5.28;1.12;;;;;;;-2.99;53.30;99593.40;1757977;81;21141;-63
2021/03/09 05:01:33;;;;;;;39.42;3.58;;;;;;;-2.95;53.40;99585.84;1758013;81;21388;-63
2021/03/09 05:04:01;;;;;;;186.45;13.55;;;;;;;-2.91;53.39;99586.74;1757931;81;21100;-63
2021/03/09 05:06:29;;;;;;;29.77;3.83;;;;;;;-2.90;53.38;99587.19;1757939;81;21053;-63
2021/03/09 05:08:56;;;;;;;13.85;2.87;;;;;;;-2.87;53.56;99593.59;1757980;81;21124;-63
2021/03/09 05:11:29;;;;;;;10.10;5.58;;;;;;;-2.82;53.62;99596.66;1757979;81;21189;-63
2021/03/09 05:13:57;;;;;;;19.17;6.12;;;;;;;-2.82;53.36;99601.75;1757999;81;21369;-63
2021/03/09 05:16:25;;;;;;;14.58;6.53;;;;;;;-2.88;53.27;99604.19;1757918;81;21179;-63
2021/03/09 05:18:54;;;;;;;16.65;5.83;;;;;;;-2.91;53.30;99606.69;1757913;81;21054;-63
2021/03/09 05:21:21;;;;;;;66.45;10.78;;;;;;;-2.91;53.49;99610.51;1757962;81;21069;-63
2021/03/09 05:23:49;;;;;;;18.17;6.28;;;;;;;-2.83;53.70;99606.81;1758071;81;21144;-64
2021/03/09 05:26:16;;;;;;;16.10;4.67;;;;;;;-2.75;53.71;99606.90;1757975;81;22204;-64
2021/03/09 05:28:48;;;;;;;13.65;3.72;;;;;;;-2.70;53.81;99612.50;1757923;81;21171;-64
2021/03/09 05:31:15;;;;;;;8.93;4.05;;;;;;;-2.66;53.63;99612.13;1758064;81;21572;-64
2021/03/09 05:33:44;;;;;;;20.62;6.30;;;;;;;-2.65;53.65;99618.52;1757972;81;21073;-64
2021/03/09 05:36:11;;;;;;;42.80;8.75;;;;;;;-2.63;53.69;99621.95;1757970;81;21076;-64
2021/03/09 05:38:39;;;;;;;27.13;6.60;;;;;;;-2.58;54.18;99624.53;1757984;81;21212;-64
2021/03/09 05:41:06;;;;;;;27.45;5.12;;;;;;;-2.54;54.04;99625.88;1757888;81;21196;-64
2021/03/09 05:43:35;;;;;;;23.52;5.25;;;;;;;-2.48;53.79;99634.02;1757961;81;21093;-64
2021/03/09 05:46:02;;;;;;;11.10;4.12;;;;;;;-2.45;53.67;99639.16;1734444;81;21525;-64
2021/03/09 05:48:30;;;;;;;20.80;4.45;;;;;;;-2.42;53.47;99644.72;1757973;81;21061;-64
2021/03/09 05:50:58;;;;;;;61.92;7.12;;;;;;;-2.37;53.35;99640.51;1757949;81;21494;-62
2021/03/09 05:53:26;;;;;;;40.83;5.67;;;;;;;-2.28;53.33;99640.64;1757870;81;21132;-63
2021/03/09 05:55:54;;;;;;;45.00;5.87;;;;;;;-2.17;53.17;99646.30;1756185;81;21061;-63
2021/03/09 05:58:21;;;;;;;86.25;13.62;;;;;;;-2.04;52.73;99646.05;1754088;80;21081;-63
2021/03/09 06:00:49;;;;;;;47.23;7.65;;;;;;;-1.93;52.64;99648.70;1754188;81;21148;-63
2021/03/09 06:03:17;;;;;;;37.75;8.03;;;;;;;-1.84;52.65;99652.23;1752993;81;23591;-64
2021/03/09 06:05:45;;;;;;;39.30;5.67;;;;;;;-1.75;52.14;99659.09;1752955;81;21196;-67
2021/03/09 06:08:12;;;;;;;16.37;2.85;;;;;;;-1.70;51.86;99658.73;1753593;81;21053;-64
2021/03/09 06:10:40;;;;;;;38.70;3.60;;;;;;;-1.61;51.46;99661.40;1754106;81;21078;-63
2021/03/09 06:13:08;;;;;;;22.17;2.80;;;;;;;-1.55;51.25;99668.23;1754106;81;21129;-63
2021/03/09 06:15:53;;;;;;;7.12;1.30;;;;;;;-1.50;50.82;99669.14;1754156;81;21216;-64
2021/03/09 06:18:25;;;;;;;83.00;6.35;;;;;;;-1.43;49.88;99676.88;1754391;81;21494;-64
2021/03/09 06:21:15;;;;;;;17.55;2.00;;;;;;;-1.37;49.91;99682.44;1754284;81;21078;-64
2021/03/09 06:23:44;;;;;;;37.13;5.60;;;;;;;-1.34;49.44;99679.07;1754113;81;21718;-63
2021/03/09 06:26:34;;;;;;;21.80;4.22;;;;;;;-1.28;49.02;99677.86;1754298;81;21084;-63
2021/03/09 06:29:14;;;;;;;9.28;4.53;;;;;;;-1.25;49.19;99671.09;1754355;81;21384;-64
2021/03/09 06:32:01;;;;;;;32.42;4.33;;;;;;;-1.21;48.72;99666.88;1753018;81;21084;-63
2021/03/09 06:34:32;;;;;;;59.05;5.67;;;;;;;-1.24;48.92;99669.40;1754314;81;21148;-64
2021/03/09 06:37:16;;;;;;;51.10;6.72;;;;;;;-1.16;49.48;99677.54;1754269;81;21064;-65
2021/03/09 06:40:03;;;;;;;70.92;9.23;;;;;;;-1.01;49.63;99680.67;1754061;81;21090;-62
2021/03/09 06:42:36;;;;;;;28.62;6.47;;;;;;;-0.88;49.57;99688.84;1753346;81;21207;-64
2021/03/09 06:45:15;;;;;;;38.75;6.10;;;;;;;-0.78;48.76;99693.16;1754367;81;21510;-64
2021/03/09 06:47:52;;;;;;;14.20;2.62;;;;;;;-0.71;48.50;99692.80;1753381;81;21066;-62
2021/03/09 06:50:23;;;;;;;11.60;3.10;;;;;;;-0.62;47.15;99701.82;1754318;81;21518;-64
2021/03/09 06:53:00;;;;;;;24.02;5.17;;;;;;;-0.55;47.61;99695.03;1752554;81;21101;-64
2021/03/09 06:55:34;;;;;;;19.98;7.15;;;;;;;-0.45;47.79;99694.27;1754241;81;22117;-64
2021/03/09 06:58:11;;;;;;;8.08;5.35;;;;;;;-0.40;46.61;99698.53;1754173;80;21069;-63
2021/03/09 07:00:41;;;;;;;8.60;4.20;;;;;;;-0.46;46.28;99695.97;1754222;81;21053;-64
2021/03/09 07:03:38;;;;;;;7.28;3.35;;;;;;;-0.55;46.02;99697.16;1726802;81;21223;-64
2021/03/09 07:06:07;;;;;;;14.53;3.00;;;;;;;-0.60;46.21;99697.55;1753317;81;21136;-64
2021/03/09 07:08:35;;;;;;;46.48;4.80;;;;;;;-0.46;46.40;99697.24;1754123;81;21417;-63
2021/03/09 07:11:03;;;;;;;27.80;5.42;;;;;;;-0.30;46.27;99703.30;1754145;81;21149;-74
2021/03/09 07:13:33;;;;;;;21.50;3.50;;;;;;;-0.17;46.27;99707.61;1752707;81;21065;-61
2021/03/09 07:16:02;;;;;;;12.35;3.20;;;;;;;-0.05;46.13;99710.25;1753019;81;21085;-62
2021/03/09 07:18:33;;;;;;;42.67;12.53;;;;;;;0.00;45.55;99713.66;1725656;81;21101;-62
2021/03/09 07:21:07;;;;;;;35.70;11.00;;;;;;;-0.01;46.24;99709.43;1752774;81;21363;-62
2021/03/09 07:23:37;;;;;;;9.03;4.55;;;;;;;-0.01;45.81;99717.10;1750780;81;21149;-61
2021/03/09 07:26:04;;;;;;;26.37;4.15;;;;;;;-0.10;44.96;99722.16;1752949;81;21215;-63
2021/03/09 07:28:38;;;;;;;4.55;1.60;;;;;;;-0.23;45.77;99720.80;1753517;81;21145;-65
2021/03/09 07:31:05;;;;;;;;;;;;;;;-0.21;45.35;99718.70;1755672;81;21187;-65
2021/03/09 07:33:34;;;;;;;15.70;4.12;;;;;;;-0.15;45.56;99716.15;1753571;81;21534;-64
2021/03/09 07:36:05;;;;;;;12.35;2.98;;;;;;;-0.04;45.86;99717.50;1752885;81;21245;-63
2021/03/09 07:38:34;;;;;;;19.30;4.45;;;;;;;0.11;45.53;99712.45;1753007;81;21164;-61
2021/03/09 07:41:01;;;;;;;19.77;3.37;;;;;;;0.20;45.20;99718.87;1752923;81;21180;-62
2021/03/09 07:43:29;;;;;;;13.60;3.15;;;;;;;0.18;45.01;99718.03;1726567;81;21573;-62
2021/03/09 07:45:57;;;;;;;20.48;3.50;;;;;;;0.17;45.09;99719.30;1754106;81;21374;-64
2021/03/09 07:48:25;;;;;;;27.82;2.95;;;;;;;0.19;45.69;99718.89;1754040;81;21266;-63
2021/03/09 07:50:52;;;;;;;60.55;6.78;;;;;;;0.27;46.18;99714.22;1754114;81;21073;-62
2021/03/09 07:53:20;;;;;;;6.60;2.37;;;;;;;0.34;46.04;99715.96;1754182;81;21077;-62
2021/03/09 07:56:06;;;;;;;13.55;3.45;;;;;;;0.37;45.20;99720.23;1752003;81;21192;-64
2021/03/09 07:58:32;;;;;;;4.17;1.40;;;;;;;0.30;45.29;99733.42;1713378;83;22219;-63
2021/03/09 08:01:03;;;;;;;5.05;1.40;;;;;;;0.29;45.06;99720.20;1714256;82;21571;-61
2021/03/09 08:03:34;;;;;;;13.85;2.65;;;;;;;0.32;45.17;99721.49;1714405;82;21073;-62
2021/03/09 08:06:12;;;;;;;14.58;3.72;;;;;;;0.32;45.20;99721.49;1713576;82;22198;-62
2021/03/09 08:08:53;;;;;;;147.87;12.33;;;;;;;0.36;45.38;99726.20;1714412;83;21136;-61
2021/03/09 08:11:26;;;;;;;7.58;3.15;;;;;;;0.40;45.48;99724.06;1714371;83;21392;-71
2021/03/09 08:14:11;;;;;;;32.40;4.72;;;;;;;0.50;44.85;99728.38;1714373;83;21517;-62
2021/03/09 08:16:44;;;;;;;4.65;2.22;;;;;;;0.56;45.12;99731.38;1714364;82;21132;-63
2021/03/09 08:19:19;;;;;;;10.15;2.50;;;;;;;0.65;45.03;99728.41;1714352;83;21076;-62
2021/03/09 08:21:52;;;;;;;11.33;2.30;;;;;;;0.74;44.23;99731.43;1704736;82;21210;-63
2021/03/09 08:24:45;;;;;;;;;;;;;;;0.80;44.03;99727.58;1713971;82;21443;-62
2021/03/09 08:27:39;;;;;;;2.35;1.40;;;;;;;0.84;43.80;99730.58;1715569;83;20292;-63
2021/03/09 08:30:30;;;;;;;7.05;2.02;;;;;;;0.86;43.11;99736.98;1700553;83;21113;-62
2021/03/09 08:33:25;;;;;;;32.42;4.90;;;;;;;0.76;43.27;99731.01;1672794;82;22191;-64
2021/03/09 08:35:54;;;;;;;12.68;3.35;;;;;;;0.72;44.54;99728.43;1726510;82;21058;-62
2021/03/09 08:38:23;;;;;;;10.13;2.70;;;;;;;0.74;44.43;99733.13;1743101;82;21378;-62
2021/03/09 08:41:06;;;;;;;22.60;3.50;;;;;;;0.71;44.28;99735.25;1743451;81;21607;-63
2021/03/09 08:43:42;;;;;;;8.80;1.45;;;;;;;0.77;44.31;99742.96;1743577;82;23117;-61
2021/03/09 08:46:16;;;;;;;5.50;1.90;;;;;;;0.84;43.37;99742.52;1743420;81;21499;-61
2021/03/09 08:48:48;;;;;;;6.28;1.55;;;;;;;0.84;43.32;99747.64;1743547;81;21504;-62
2021/03/09 08:51:43;;;;;;;7.75;1.67;;;;;;;0.89;43.51;99743.39;1742326;82;21627;-65
2021/03/09 08:54:42;;;;;;;12.73;1.50;;;;;;;0.94;43.56;99742.56;1736633;81;21626;-63
2021/03/09 08:57:23;;;;;;;3.47;2.45;;;;;;;0.89;42.71;99748.52;1743361;82;21151;-63
2021/03/09 08:59:56;;;;;;;6.83;1.57;;;;;;;0.85;43.27;99748.93;1743353;82;21171;-63
2021/03/09 09:02:25;;;;;;;8.08;2.90;;;;;;;0.87;43.00;99748.52;1743107;82;21168;-64
2021/03/09 09:05:02;;;;;;;7.33;3.10;;;;;;;0.92;43.47;99750.66;1743499;81;21536;-63
2021/03/09 09:07:43;;;;;;;19.62;2.72;;;;;;;1.01;42.99;99752.37;1743449;81;21187;-63
2021/03/09 09:10:18;;;;;;;19.50;2.40;;;;;;;1.14;43.03;99757.95;1719652;82;44164;-62
2021/03/09 09:12:47;;;;;;;25.10;2.00;;;;;;;1.24;42.40;99754.95;1743595;82;21489;-63
2021/03/09 09:15:24;;;;;;;19.50;2.37;;;;;;;1.32;42.25;99757.11;1743489;81;21137;-62
2021/03/09 09:18:00;;;;;;;16.12;2.17;;;;;;;1.37;42.23;99755.41;1743485;82;21376;-64
2021/03/09 09:20:41;;;;;;;3.50;1.60;;;;;;;1.36;41.69;99761.39;1743376;81;21108;-62
2021/03/09 09:23:22;;;;;;;1.45;1.10;;;;;;;1.25;41.68;99767.77;1743540;82;21072;-63
2021/03/09 09:25:56;;;;;;;6.42;1.52;;;;;;;1.08;41.55;99774.59;1743593;82;21160;-64
2021/03/09 09:28:30;;;;;;;4.70;1.50;;;;;;;0.93;42.29;99768.16;1744699;82;21569;-64
2021/03/09 09:31:02;;;;;;;10.90;1.70;;;;;;;0.87;41.82;99770.70;1744995;81;21381;-63
2021/03/09 09:33:32;;;;;;;5.37;1.47;;;;;;;0.87;42.18;99769.42;1741894;81;21155;-63
2021/03/09 09:36:01;;;;;;;2.42;0.93;;;;;;;0.90;42.35;99772.84;1745042;82;21230;-62
2021/03/09 09:38:29;;;;;;;7.87;2.92;;;;;;;0.96;42.33;99769.45;1745059;81;21076;-62
2021/03/09 09:41:00;;;;;;;8.53;1.17;;;;;;;0.91;42.40;99771.14;1745074;82;21096;-64
2021/03/09 09:43:31;;;;;;;7.95;1.20;;;;;;;0.82;42.43;99776.23;1744968;81;21329;-64
2021/03/09 09:46:04;;;;;;;2.95;1.40;;;;;;;0.77;42.57;99772.41;1745169;82;21643;-63
2021/03/09 09:48:38;;;;;;;11.65;1.98;;;;;;;0.78;42.54;99770.27;1745159;82;21127;-64
2021/03/09 09:51:20;;;;;;;6.62;1.57;;;;;;;0.87;42.75;99777.11;1745078;81;21178;-62
2021/03/09 09:53:52;;;;;;;4.22;1.17;;;;;;;0.87;42.75;99777.96;1745194;82;21073;-63
2021/03/09 09:56:24;;;;;;;2.75;1.20;;;;;;;0.82;42.37;99778.36;1744275;80;21524;-63
2021/03/09 09:58:59;;;;;;;9.78;1.85;;;;;;;0.79;42.69;99773.27;1745201;80;21159;-63
2021/03/09 10:01:39;;;;;;;9.70;1.57;;;;;;;0.74;42.98;99774.95;1745213;82;21116;-62
2021/03/09 10:04:11;;;;;;;4.92;2.85;;;;;;;0.73;43.12;99773.23;1745314;82;21081;-63
2021/03/09 10:06:41;;;;;;;12.37;2.00;;;;;;;0.71;43.28;99778.78;1745318;82;21533;-62
2021/03/09 10:09:18;;;;;;;2.15;1.10;;;;;;;0.69;43.73;99773.65;1742757;82;22198;-62
2021/03/09 10:11:52;;;;;;;2.80;1.05;;;;;;;0.72;43.38;99783.47;1744478;82;21191;-63
2021/03/09 10:14:22;;;;;;;10.98;1.30;;;;;;;0.67;43.38;99788.14;1745240;82;21198;-62
2021/03/09 10:16:50;;;;;;;5.15;1.35;;;;;;;0.65;43.38;99778.32;1745134;82;21179;-64
2021/03/09 10:19:21;;;;;;;4.35;2.15;;;;;;;0.71;43.90;99780.05;1745232;82;21080;-62
2021/03/09 10:21:54;;;;;;;9.43;2.37;;;;;;;0.81;44.08;99784.76;1745233;82;21455;-62
2021/03/09 10:24:28;;;;;;;11.22;2.25;;;;;;;0.83;44.38;99786.48;1745026;82;21882;-63
2021/03/09 10:26:56;;;;;;;2.50;1.60;;;;;;;0.84;44.32;99787.34;1744545;82;21062;-63
2021/03/09 10:29:27;;;;;;;10.18;2.17;;;;;;;0.90;44.66;99789.50;1744290;82;21581;-65
2021/03/09 10:31:58;;;;;;;10.05;2.10;;;;;;;0.95;44.70;99791.66;1725155;82;21089;-63
2021/03/09 10:34:44;;;;;;;5.50;2.10;;;;;;;1.03;44.74;99784.82;1744297;82;22199;-63
2021/03/09 10:37:13;;;;;;;6.70;1.82;;;;;;;1.11;44.26;99786.55;1744215;82;21178;-63
2021/03/09 10:39:58;;;;;;;6.40;2.22;;;;;;;1.09;44.16;99779.28;1744110;81;21129;-64
2021/03/09 10:42:39;;;;;;;34.65;3.45;;;;;;;1.14;44.16;99779.73;1744262;81;21090;-62
2021/03/09 10:45:28;;;;;;;11.75;2.77;;;;;;;1.16;44.19;99783.15;1744219;81;21081;-63
2021/03/09 10:48:01;;;;;;;6.17;2.60;;;;;;;1.08;43.26;99791.23;1744220;82;21504;-63
2021/03/09 10:50:32;;;;;;;4.42;1.52;;;;;;;0.90;43.75;99796.32;1744276;82;21097;-64
2021/03/09 10:52:59;;;;;;;14.50;3.37;;;;;;;0.73;44.60;99792.44;1744133;82;21606;-63
2021/03/09 10:55:27;;;;;;;4.58;1.70;;;;;;;0.61;45.67;99793.23;1744114;82;21090;-62
2021/03/09 10:57:55;;;;;;;8.98;3.30;;;;;;;0.55;46.22;99789.39;1744208;82;21062;-62
2021/03/09 11:00:24;;;;;;;6.90;3.40;;;;;;;0.55;46.32;99781.72;1744081;81;21212;-63
2021/03/09 11:02:52;;;;;;;20.62;5.70;;;;;;;0.68;46.31;99789.00;1744125;82;21102;-63
2021/03/09 11:05:20;;;;;;;6.75;3.20;;;;;;;0.81;46.62;99792.02;1744089;82;21145;-63
2021/03/09 11:07:48;;;;;;;2.40;1.20;;;;;;;0.93;46.20;99794.63;1744052;82;21094;-63
2021/03/09 11:10:16;;;;;;;8.73;2.35;;;;;;;0.94;46.18;99795.06;1744074;82;21085;-63
2021/03/09 11:12:44;;;;;;;6.75;1.32;;;;;;;0.94;46.23;99790.36;1743994;81;21268;-62
2021/03/09 11:15:14;;;;;;;2.10;1.52;;;;;;;1.01;45.87;99786.95;1743889;81;21145;-62
2021/03/09 11:17:43;;;;;;;9.05;1.30;;;;;;;1.17;45.87;99790.41;1744044;82;21129;-63
2021/03/09 11:20:14;;;;;;;2.47;1.25;;;;;;;1.27;45.54;99790.83;1743376;81;21193;-64
2021/03/09 11:22:43;;;;;;;2.02;1.15;;;;;;;1.31;45.32;99791.27;1744183;81;21117;-63
2021/03/09 11:25:13;;;;;;;11.30;2.15;;;;;;;1.37;45.53;99792.14;1742543;82;21589;-62
2021/03/09 11:27:41;;;;;;;4.83;1.85;;;;;;;1.41;45.71;99793.40;1744594;82;21156;-61
2021/03/09 11:30:11;;;;;;;17.35;2.72;;;;;;;1.40;45.69;99804.08;1745049;82;21207;-62
2021/03/09 11:32:38;;;;;;;2.30;1.27;;;;;;;1.40;45.79;99803.25;1745040;81;21095;-61
2021/03/09 11:35:08;;;;;;;11.40;2.55;;;;;;;1.37;45.52;99801.11;1745105;81;21093;-61
2021/03/09 11:37:35;;;;;;;5.92;1.40;;;;;;;1.38;45.76;99794.28;1745193;82;22175;-61
2021/03/09 11:40:06;;;;;;;28.60;4.25;;;;;;;1.38;45.34;99796.84;1744999;81;21136;-63
2021/03/09 11:42:34;;;;;;;12.53;2.85;;;;;;;1.35;45.64;99792.56;1745087;82;21086;-62
2021/03/09 11:45:03;;;;;;;5.75;2.40;;;;;;;1.34;46.26;99792.14;1745161;82;21156;-61
2021/03/09 11:47:31;;;;;;;2.87;1.70;;;;;;;1.30;46.59;99795.55;1734792;82;21169;-62
2021/03/09 11:49:59;;;;;;;13.83;1.90;;;;;;;1.17;47.14;99795.53;1701807;82;21226;-62
2021/03/09 11:52:27;;;;;;;94.10;6.55;;;;;;;0.99;47.65;99795.08;1703856;82;21110;-63
2021/03/09 11:54:54;;;;;;;18.05;3.92;;;;;;;0.91;48.14;99800.59;1696215;83;21540;-63
2021/03/09 11:57:22;;;;;;;14.95;6.03;;;;;;;0.96;48.53;99797.63;1714222;82;21204;-62